Terminal Aerodrome Forecast
Issued by NWS

Home | Current Version | Previous Version | Text Only | Print | Product List | Glossary On
Versions: 1 2 3 4 5 6 7 8 9 10 11 12 13 14 15 16 17 18 19 20
119
FTUS43 KIND 310520
TAFBMG
TAF
KBMG 310520Z 3106/0106 00000KT P6SM SKC
     FM310900 00000KT 2SM BR SCT250
     FM311400 27005KT P6SM BKN015
     FM311700 27005KT P6SM BKN050
     FM312100 27005KT P6SM BKN250
      AMD LTD TO CLD VIS AND WIND TIL 311300=

USA.gov is the U.S. government's official web portal to all federal, state and local government web resources and services.